Time;durP1;ratioP1;P1;durP2;ratioP2;P2;SDS_P1;SDS_P2;PMS_P1;PMS_P2;Temp;Humidity;BMP_temperature;BMP_pressure;BME280_temperature;BME280_humidity;BME280_pressure;Samples;Min_cycle;Max_cycle;Signal;HPM_P1;HPM_P2
2021/08/31 00:02:13;;;;;;;7.82;3.88;;;15.70;99.90;;;;;;4982606;28;20121;-69
2021/08/31 00:04:39;;;;;;;7.68;3.25;;;15.70;99.90;;;;;;5001341;28;20482;-70
2021/08/31 00:07:04;;;;;;;8.25;3.55;;;15.60;99.90;;;;;;5000673;28;20026;-70
2021/08/31 00:09:30;;;;;;;8.52;2.95;;;15.60;99.90;;;;;;4982850;28;20053;-69
2021/08/31 00:11:55;;;;;;;7.53;3.10;;;15.60;99.90;;;;;;5001844;28;20030;-69
2021/08/31 00:14:21;;;;;;;8.15;2.88;;;15.60;99.90;;;;;;4999541;28;20072;-69
2021/08/31 00:16:47;;;;;;;7.95;3.50;;;15.60;99.90;;;;;;5001736;28;20026;-70
2021/08/31 00:19:12;;;;;;;9.07;3.40;;;15.60;99.90;;;;;;4999590;28;20026;-70
2021/08/31 00:21:39;;;;;;;12.55;3.35;;;15.60;99.90;;;;;;5001603;28;20030;-70
2021/08/31 00:24:04;;;;;;;15.23;3.85;;;15.60;99.90;;;;;;5005733;28;20037;-69
2021/08/31 00:26:30;;;;;;;9.75;3.20;;;15.60;99.90;;;;;;4999754;28;20034;-69
2021/08/31 00:28:56;;;;;;;11.32;3.90;;;15.60;99.90;;;;;;5002245;28;20045;-70
2021/08/31 00:31:22;;;;;;;8.50;3.47;;;15.60;99.90;;;;;;5002174;28;20045;-69
2021/08/31 00:33:47;;;;;;;16.15;3.42;;;15.60;99.90;;;;;;4998538;28;20674;-70
2021/08/31 00:36:13;;;;;;;8.23;3.47;;;15.50;99.90;;;;;;5001779;28;20375;-70
2021/08/31 00:38:38;;;;;;;7.88;3.40;;;15.50;99.90;;;;;;5000104;28;20117;-70
2021/08/31 00:41:04;;;;;;;11.57;3.45;;;15.50;99.90;;;;;;5005365;28;20030;-70
2021/08/31 00:43:43;;;;;;;9.73;3.85;;;15.50;99.90;;;;;;5000563;28;20398;-70
2021/08/31 00:46:09;;;;;;;8.80;3.47;;;15.40;99.90;;;;;;4999224;28;20077;-70
2021/08/31 00:48:35;;;;;;;12.48;3.55;;;15.50;99.90;;;;;;5001350;28;20125;-70
2021/08/31 00:51:00;;;;;;;12.10;3.70;;;15.50;99.90;;;;;;5000160;28;20129;-70
2021/08/31 00:53:26;;;;;;;13.63;3.70;;;15.50;99.90;;;;;;4982161;28;20023;-69
2021/08/31 00:55:51;;;;;;;9.20;3.22;;;15.50;99.90;;;;;;5001262;28;20060;-70
2021/08/31 00:58:17;;;;;;;9.13;2.95;;;15.40;99.90;;;;;;4981292;28;20113;-69
2021/08/31 01:00:42;;;;;;;10.23;3.47;;;15.40;99.90;;;;;;5002114;28;20042;-69
2021/08/31 01:03:08;;;;;;;10.05;3.70;;;15.40;99.90;;;;;;4998803;28;20038;-69
2021/08/31 01:05:34;;;;;;;10.20;4.45;;;15.40;99.90;;;;;;4982849;28;20132;-70
2021/08/31 01:07:59;;;;;;;11.02;3.72;;;15.40;99.90;;;;;;4999339;28;20033;-69
2021/08/31 01:10:25;;;;;;;9.93;3.13;;;15.40;99.90;;;;;;4999547;28;20091;-70
2021/08/31 01:12:55;;;;;;;12.48;3.70;;;15.40;99.90;;;;;;4983894;28;20408;-70
2021/08/31 01:15:21;;;;;;;15.13;4.25;;;15.30;99.90;;;;;;4999109;28;20144;-70
2021/08/31 01:17:48;;;;;;;8.18;2.90;;;15.30;99.90;;;;;;5001819;28;20068;-69
2021/08/31 01:20:14;;;;;;;9.85;3.47;;;15.20;99.90;;;;;;4998043;28;20121;-70
2021/08/31 01:22:39;;;;;;;8.90;3.10;;;15.20;99.90;;;;;;5001588;28;20112;-70
2021/08/31 01:25:07;;;;;;;8.15;2.90;;;15.10;99.90;;;;;;5001946;28;20030;-69
2021/08/31 01:27:32;;;;;;;9.88;3.08;;;15.10;99.90;;;;;;4998691;28;20669;-70
2021/08/31 01:29:59;;;;;;;11.00;4.32;;;15.00;99.90;;;;;;4999176;28;20038;-70
2021/08/31 01:32:26;;;;;;;14.77;3.70;;;15.00;99.90;;;;;;4997599;28;20065;-69
2021/08/31 01:34:52;;;;;;;11.20;3.30;;;14.90;99.90;;;;;;4999372;28;20034;-69
2021/08/31 01:37:18;;;;;;;8.73;3.38;;;14.90;99.90;;;;;;4996364;28;20931;-70
2021/08/31 01:39:44;;;;;;;15.13;3.53;;;14.90;99.90;;;;;;5008591;28;20044;-70
2021/08/31 01:42:10;;;;;;;10.20;4.10;;;14.90;99.90;;;;;;5000538;28;20471;-70
2021/08/31 01:44:36;;;;;;;10.98;3.97;;;14.80;99.90;;;;;;5000808;28;20112;-70
2021/08/31 01:47:02;;;;;;;10.43;4.15;;;14.80;99.90;;;;;;5002342;28;20038;-70
2021/08/31 01:49:28;;;;;;;14.35;4.40;;;14.80;99.90;;;;;;5001166;28;20128;-69
2021/08/31 01:51:54;;;;;;;12.35;4.05;;;14.80;99.90;;;;;;5001519;28;20134;-70
2021/08/31 01:54:20;;;;;;;15.15;4.53;;;14.80;99.90;;;;;;5003568;28;20037;-69
2021/08/31 01:56:45;;;;;;;11.38;4.32;;;14.80;99.90;;;;;;5003141;28;20112;-69
2021/08/31 01:59:11;;;;;;;9.43;3.97;;;14.80;99.90;;;;;;4999716;28;20042;-69
2021/08/31 02:01:38;;;;;;;12.65;4.40;;;14.70;99.90;;;;;;4985248;28;20038;-70
2021/08/31 02:04:04;;;;;;;17.10;4.70;;;14.80;99.90;;;;;;5000775;28;20081;-69
2021/08/31 02:06:30;;;;;;;10.77;4.43;;;14.80;99.90;;;;;;5001227;28;20069;-70
2021/08/31 02:08:56;;;;;;;20.60;5.47;;;14.80;99.90;;;;;;5001239;28;20045;-69
2021/08/31 02:11:21;;;;;;;11.13;4.82;;;14.80;99.90;;;;;;5000715;28;20045;-69
2021/08/31 02:13:47;;;;;;;17.55;5.13;;;14.80;99.90;;;;;;5002554;28;20041;-69
2021/08/31 02:16:12;;;;;;;16.20;5.65;;;14.80;99.90;;;;;;4999640;28;20670;-70
2021/08/31 02:18:39;;;;;;;16.65;5.30;;;14.80;99.90;;;;;;5002514;28;20041;-69
2021/08/31 02:21:09;;;;;;;13.32;4.30;;;14.80;99.90;;;;;;5000017;28;20093;-70
2021/08/31 02:23:41;;;;;;;13.73;4.45;;;14.80;99.90;;;;;;5005095;28;20042;-69
2021/08/31 02:26:06;;;;;;;13.50;4.20;;;14.80;99.90;;;;;;4999628;28;20064;-69
2021/08/31 02:28:32;;;;;;;14.82;4.32;;;14.80;99.90;;;;;;5001034;28;20066;-69
2021/08/31 02:30:57;;;;;;;10.52;4.60;;;14.70;99.90;;;;;;5000638;28;20046;-69
2021/08/31 02:33:23;;;;;;;14.18;4.65;;;14.70;99.90;;;;;;4998887;28;20538;-69
2021/08/31 02:35:48;;;;;;;18.80;4.72;;;14.70;99.90;;;;;;5001702;28;20577;-69
2021/08/31 02:38:14;;;;;;;14.32;5.05;;;14.70;99.90;;;;;;4999112;28;20366;-70
2021/08/31 02:40:40;;;;;;;16.95;4.75;;;14.70;99.90;;;;;;5005969;28;20030;-69
2021/08/31 02:43:05;;;;;;;18.90;5.13;;;14.70;99.90;;;;;;4999467;28;20469;-69
2021/08/31 02:45:31;;;;;;;12.27;4.63;;;14.60;99.90;;;;;;5000565;28;20096;-69
2021/08/31 02:47:56;;;;;;;25.95;4.72;;;14.60;99.90;;;;;;5000001;28;20127;-69
2021/08/31 02:50:22;;;;;;;10.98;4.20;;;14.60;99.90;;;;;;4998902;28;20406;-70
2021/08/31 02:52:48;;;;;;;11.75;4.28;;;14.60;99.90;;;;;;5001703;28;20125;-69
2021/08/31 02:55:14;;;;;;;12.32;4.72;;;14.60;99.90;;;;;;4998595;28;20088;-69
2021/08/31 02:57:40;;;;;;;15.00;5.05;;;14.50;99.90;;;;;;4997808;28;20031;-69
2021/08/31 03:00:07;;;;;;;12.45;4.90;;;14.50;99.90;;;;;;5002032;28;20149;-69
2021/08/31 03:02:33;;;;;;;11.45;5.00;;;14.50;99.90;;;;;;4997611;28;20088;-69
2021/08/31 03:04:58;;;;;;;12.70;4.55;;;14.50;99.90;;;;;;4999838;28;20573;-70
2021/08/31 03:07:24;;;;;;;12.27;4.15;;;14.50;99.90;;;;;;4999189;28;20045;-69
2021/08/31 03:09:49;;;;;;;12.38;4.65;;;14.40;99.90;;;;;;4999718;28;20403;-69
2021/08/31 03:12:15;;;;;;;14.70;4.15;;;14.40;99.90;;;;;;5001719;28;20041;-69
2021/08/31 03:14:41;;;;;;;19.50;5.05;;;14.40;99.90;;;;;;5002056;28;20033;-69
2021/08/31 03:17:07;;;;;;;14.05;4.43;;;14.40;99.90;;;;;;5008806;28;20073;-69
2021/08/31 03:19:32;;;;;;;10.52;3.75;;;14.40;99.90;;;;;;5007225;28;20033;-69
2021/08/31 03:22:00;;;;;;;14.90;4.85;;;14.40;99.90;;;;;;5002794;28;20238;-69
2021/08/31 03:24:26;;;;;;;13.32;4.70;;;14.40;99.90;;;;;;4998978;28;20021;-70
2021/08/31 03:26:52;;;;;;;17.02;4.13;;;14.40;99.90;;;;;;4999963;28;20069;-69
2021/08/31 03:29:18;;;;;;;11.88;4.53;;;14.40;99.90;;;;;;5000874;28;20583;-69
2021/08/31 03:31:44;;;;;;;14.63;4.60;;;14.40;99.90;;;;;;4997606;28;20062;-69
2021/08/31 03:34:10;;;;;;;12.02;4.45;;;14.40;99.90;;;;;;5008635;28;20030;-69
2021/08/31 03:36:35;;;;;;;18.52;4.40;;;14.50;99.90;;;;;;4997349;28;20023;-70
2021/08/31 03:39:01;;;;;;;16.52;4.25;;;14.50;99.90;;;;;;5001330;28;20041;-69
2021/08/31 03:41:27;;;;;;;11.15;3.63;;;14.50;99.90;;;;;;5001975;28;20031;-70
2021/08/31 03:43:53;;;;;;;11.70;4.65;;;14.50;99.90;;;;;;4999360;28;20148;-70
2021/08/31 03:46:18;;;;;;;11.98;4.50;;;14.60;99.90;;;;;;4981154;28;20038;-70
2021/08/31 03:48:44;;;;;;;12.90;3.70;;;14.50;99.90;;;;;;4999848;28;20038;-70
2021/08/31 03:51:09;;;;;;;13.70;3.97;;;14.60;99.90;;;;;;5005034;28;20038;-69
2021/08/31 03:53:36;;;;;;;14.18;3.78;;;14.50;99.90;;;;;;4996907;28;20042;-70
2021/08/31 03:56:01;;;;;;;15.45;4.40;;;14.50;99.90;;;;;;5000314;28;20033;-69
2021/08/31 03:58:27;;;;;;;11.15;3.83;;;14.50;99.90;;;;;;4998134;28;20037;-70
2021/08/31 04:00:53;;;;;;;10.15;3.72;;;14.50;99.90;;;;;;4998792;28;20759;-70
2021/08/31 04:03:18;;;;;;;10.05;3.90;;;14.50;99.90;;;;;;4999200;28;20041;-69
2021/08/31 04:05:44;;;;;;;12.32;4.07;;;14.50;99.90;;;;;;4997595;28;20113;-69
2021/08/31 04:08:09;;;;;;;15.00;4.80;;;14.50;99.90;;;;;;5000295;28;20038;-69
2021/08/31 04:10:35;;;;;;;7.03;3.40;;;14.50;99.90;;;;;;4997141;28;20030;-69
2021/08/31 04:13:01;;;;;;;13.57;3.83;;;14.40;99.90;;;;;;4982789;28;20474;-69
2021/08/31 04:15:26;;;;;;;10.50;3.38;;;14.40;99.90;;;;;;4997924;28;20030;-69
2021/08/31 04:17:52;;;;;;;12.88;3.60;;;14.40;99.90;;;;;;4998740;28;20046;-70
2021/08/31 04:20:17;;;;;;;11.48;3.75;;;14.40;99.90;;;;;;4999056;28;20064;-69
2021/08/31 04:22:43;;;;;;;9.25;3.45;;;14.30;99.90;;;;;;4997568;28;20101;-69
2021/08/31 04:25:09;;;;;;;10.13;3.20;;;14.30;99.90;;;;;;5003498;28;20033;-69
2021/08/31 04:27:35;;;;;;;10.25;3.70;;;14.30;99.90;;;;;;4996702;28;20094;-71
2021/08/31 04:30:01;;;;;;;11.93;3.67;;;14.30;99.90;;;;;;5000268;28;20570;-69
2021/08/31 04:32:27;;;;;;;12.63;3.55;;;14.20;99.90;;;;;;4979574;28;20518;-69
2021/08/31 04:34:55;;;;;;;13.45;3.30;;;14.20;99.90;;;;;;4998698;28;20106;-70
2021/08/31 04:37:22;;;;;;;17.05;3.60;;;14.20;99.90;;;;;;4980662;28;20121;-69
2021/08/31 04:39:47;;;;;;;14.30;3.83;;;14.20;99.90;;;;;;5002118;28;20033;-70
2021/08/31 04:42:13;;;;;;;15.63;3.70;;;14.20;99.90;;;;;;4997514;28;20595;-69
2021/08/31 04:44:38;;;;;;;11.40;3.60;;;14.20;99.90;;;;;;4999055;28;20117;-70
2021/08/31 04:47:04;;;;;;;12.77;3.97;;;14.20;99.90;;;;;;5000831;28;20034;-69
2021/08/31 04:49:29;;;;;;;11.75;3.55;;;14.10;99.90;;;;;;4996914;28;20121;-70
2021/08/31 04:51:55;;;;;;;13.10;3.80;;;14.10;99.90;;;;;;4998882;28;20042;-70
2021/08/31 04:54:21;;;;;;;12.93;3.55;;;14.10;99.90;;;;;;4998059;28;20030;-69
2021/08/31 04:56:46;;;;;;;10.10;3.67;;;14.10;99.90;;;;;;4997362;28;20036;-69
2021/08/31 04:59:12;;;;;;;12.07;3.38;;;14.10;99.90;;;;;;4999726;28;20037;-69
2021/08/31 05:01:37;;;;;;;15.93;4.07;;;14.10;99.90;;;;;;4997168;28;20039;-70
2021/08/31 05:04:03;;;;;;;7.68;3.22;;;14.20;99.90;;;;;;4999736;28;20468;-70
2021/08/31 05:06:29;;;;;;;12.40;3.20;;;14.20;99.90;;;;;;4978668;28;20049;-70
2021/08/31 05:08:54;;;;;;;11.98;3.30;;;14.20;99.90;;;;;;4981857;28;20544;-70
2021/08/31 05:11:21;;;;;;;23.25;4.35;;;14.20;99.90;;;;;;4997203;28;20434;-70
2021/08/31 05:13:46;;;;;;;10.63;3.22;;;14.30;99.90;;;;;;4996909;28;20153;-70
2021/08/31 05:16:18;;;;;;;10.93;3.60;;;14.30;99.90;;;;;;4998360;28;20120;-70
2021/08/31 05:18:43;;;;;;;14.20;3.50;;;14.30;99.90;;;;;;4997391;28;20467;-71
2021/08/31 05:21:09;;;;;;;12.68;3.35;;;14.40;99.90;;;;;;5000056;28;20038;-70
2021/08/31 05:23:35;;;;;;;15.82;4.22;;;14.40;99.90;;;;;;5000774;28;20406;-69
2021/08/31 05:26:01;;;;;;;9.77;3.38;;;14.40;99.90;;;;;;4981769;28;20045;-70
2021/08/31 05:28:26;;;;;;;15.32;3.63;;;14.40;99.90;;;;;;4996974;28;20114;-70
2021/08/31 05:30:52;;;;;;;11.50;3.33;;;14.50;99.90;;;;;;4998544;28;20117;-70
2021/08/31 05:33:18;;;;;;;12.18;3.13;;;14.50;99.90;;;;;;4997302;28;20121;-70
2021/08/31 05:35:43;;;;;;;11.80;3.70;;;14.50;99.90;;;;;;4997429;28;20467;-70
2021/08/31 05:38:09;;;;;;;8.50;2.95;;;14.50;99.90;;;;;;4998540;28;20590;-70
2021/08/31 05:40:34;;;;;;;6.82;2.70;;;14.60;99.90;;;;;;4999261;28;20072;-70
2021/08/31 05:43:00;;;;;;;12.68;3.40;;;14.60;99.90;;;;;;4995448;28;20034;-70
2021/08/31 05:45:26;;;;;;;14.38;3.30;;;14.70;99.90;;;;;;4999193;28;20506;-70
2021/08/31 05:47:51;;;;;;;12.43;3.38;;;14.70;99.90;;;;;;4996952;28;20035;-70
2021/08/31 05:50:17;;;;;;;9.88;3.10;;;14.80;99.90;;;;;;4997808;28;20104;-70
2021/08/31 05:52:42;;;;;;;12.82;2.92;;;14.80;99.90;;;;;;4999948;28;20034;-70
2021/08/31 05:55:09;;;;;;;17.80;3.60;;;14.90;99.90;;;;;;4993309;28;20487;-70
2021/08/31 05:57:36;;;;;;;11.82;3.00;;;14.90;99.90;;;;;;4997491;28;20038;-70
2021/08/31 06:00:02;;;;;;;10.65;2.80;;;15.00;99.90;;;;;;4998416;28;20038;-70
2021/08/31 06:02:27;;;;;;;10.23;2.70;;;15.10;99.90;;;;;;5000311;28;20054;-70
2021/08/31 06:04:53;;;;;;;9.55;2.80;;;15.20;99.90;;;;;;4998538;28;20744;-69
2021/08/31 06:07:18;;;;;;;12.02;3.25;;;15.30;99.90;;;;;;4998018;28;20399;-70
2021/08/31 06:09:44;;;;;;;13.07;3.13;;;15.40;99.90;;;;;;4998501;28;20671;-70
2021/08/31 06:12:12;;;;;;;5.38;2.35;;;15.60;99.90;;;;;;4999466;28;20072;-70
2021/08/31 06:14:39;;;;;;;10.07;2.65;;;15.70;99.90;;;;;;5007710;28;20039;-69
2021/08/31 06:17:05;;;;;;;14.85;2.78;;;15.80;99.90;;;;;;4994462;28;20567;-70
2021/08/31 06:19:30;;;;;;;10.05;3.30;;;15.90;99.90;;;;;;4999354;28;20026;-69
2021/08/31 06:21:57;;;;;;;6.15;2.47;;;16.00;99.90;;;;;;4981526;28;20041;-69
2021/08/31 06:24:23;;;;;;;8.13;3.45;;;16.20;99.90;;;;;;4995973;28;20031;-69
2021/08/31 06:26:48;;;;;;;8.20;2.83;;;16.40;99.90;;;;;;5002149;28;20137;-69
2021/08/31 06:29:14;;;;;;;8.77;3.05;;;16.60;99.90;;;;;;5002922;28;20645;-70
2021/08/31 06:31:39;;;;;;;11.07;3.50;;;16.70;99.90;;;;;;5000595;28;20030;-69
2021/08/31 06:34:05;;;;;;;11.15;2.85;;;16.90;99.90;;;;;;4999426;28;20019;-69
2021/08/31 06:36:31;;;;;;;11.18;3.15;;;17.10;99.90;;;;;;5000109;28;20117;-69
2021/08/31 06:38:56;;;;;;;12.30;3.70;;;17.40;99.90;;;;;;4998236;28;20678;-70
2021/08/31 06:41:22;;;;;;;9.73;2.78;;;17.90;99.90;;;;;;5006818;28;20038;-70
2021/08/31 06:43:47;;;;;;;11.30;2.38;;;18.70;99.90;;;;;;5000813;28;20438;-70
2021/08/31 06:46:14;;;;;;;6.20;2.55;;;19.30;99.90;;;;;;5000158;28;20046;-70
2021/08/31 06:48:44;;;;;;;10.35;2.75;;;19.90;99.90;;;;;;4992881;28;20057;-70
2021/08/31 06:51:11;;;;;;;10.23;2.60;;;20.30;99.90;;;;;;4996568;28;20038;-70
2021/08/31 06:53:36;;;;;;;6.78;2.38;;;20.70;99.90;;;;;;4994627;28;20038;-70
2021/08/31 06:56:02;;;;;;;10.85;2.47;;;21.10;99.90;;;;;;4982231;28;20054;-70
2021/08/31 06:58:28;;;;;;;8.40;2.33;;;21.70;99.90;;;;;;4998504;28;20064;-70
2021/08/31 07:00:53;;;;;;;7.55;2.53;;;22.30;99.90;;;;;;4999956;28;20030;-70
2021/08/31 07:03:19;;;;;;;10.95;2.58;;;22.80;99.90;;;;;;4997584;28;20036;-70
2021/08/31 07:05:44;;;;;;;10.95;2.35;;;23.00;99.90;;;;;;4999177;28;20113;-70
2021/08/31 07:08:10;;;;;;;7.28;1.90;;;23.30;99.90;;;;;;4995088;28;20034;-70
2021/08/31 07:10:35;;;;;;;9.23;2.40;;;23.30;99.90;;;;;;5001801;28;20041;-70
2021/08/31 07:13:01;;;;;;;7.70;1.90;;;23.20;99.90;;;;;;5002384;28;20708;-70
2021/08/31 07:15:27;;;;;;;6.40;2.17;;;22.80;99.90;;;;;;5002274;28;20514;-70
2021/08/31 07:17:53;;;;;;;5.40;1.35;;;22.20;99.90;;;;;;5000896;28;20136;-70
2021/08/31 07:20:18;;;;;;;9.55;2.25;;;21.60;99.90;;;;;;5002688;28;20049;-69
2021/08/31 07:22:44;;;;;;;7.90;1.80;;;21.20;99.90;;;;;;5000632;28;20030;-70
2021/08/31 07:25:10;;;;;;;6.43;2.35;;;20.90;99.90;;;;;;5001409;28;20410;-69
2021/08/31 07:27:36;;;;;;;8.68;1.92;;;20.60;99.90;;;;;;5001110;28;20041;-70
2021/08/31 07:30:02;;;;;;;8.38;2.03;;;20.30;99.90;;;;;;5000659;28;20691;-70
2021/08/31 07:32:27;;;;;;;7.60;2.15;;;20.20;99.90;;;;;;5002561;28;20041;-69
2021/08/31 07:34:53;;;;;;;4.03;1.58;;;20.00;99.90;;;;;;4999013;28;20398;-70
2021/08/31 07:37:18;;;;;;;13.95;2.42;;;19.90;99.90;;;;;;4981017;28;20149;-69
2021/08/31 07:39:44;;;;;;;7.18;1.90;;;19.90;99.90;;;;;;5004705;28;20109;-69
2021/08/31 07:42:10;;;;;;;8.90;2.35;;;19.80;99.90;;;;;;4996837;28;20127;-69
2021/08/31 07:44:36;;;;;;;9.10;1.77;;;19.70;99.90;;;;;;4997451;28;20083;-69
2021/08/31 07:47:02;;;;;;;7.88;1.83;;;19.70;99.90;;;;;;4998804;28;20557;-68
2021/08/31 07:49:27;;;;;;;6.20;1.75;;;19.60;99.90;;;;;;4992398;28;20659;-69
2021/08/31 07:51:53;;;;;;;10.23;1.75;;;19.70;99.90;;;;;;4997022;28;20057;-70
2021/08/31 07:54:19;;;;;;;8.10;1.90;;;19.70;99.90;;;;;;5000897;28;20037;-69
2021/08/31 07:56:44;;;;;;;8.82;2.58;;;19.70;99.90;;;;;;4999817;28;20038;-70
2021/08/31 07:59:10;;;;;;;14.85;1.73;;;19.90;99.90;;;;;;5003719;28;20125;-70
2021/08/31 08:01:36;;;;;;;13.23;2.85;;;19.90;99.90;;;;;;4985277;28;20045;-69
2021/08/31 08:04:01;;;;;;;14.07;2.95;;;19.90;99.90;;;;;;5000874;28;20444;-69
2021/08/31 08:06:27;;;;;;;10.05;1.70;;;19.90;99.90;;;;;;4999118;28;20029;-68
2021/08/31 08:08:54;;;;;;;6.53;1.77;;;20.00;99.90;;;;;;4997610;28;20046;-70
2021/08/31 08:11:19;;;;;;;6.90;1.75;;;20.00;99.90;;;;;;5001377;28;20029;-70
2021/08/31 08:13:45;;;;;;;6.53;2.08;;;20.00;99.90;;;;;;4980224;28;20494;-70
2021/08/31 08:16:10;;;;;;;6.82;1.60;;;20.00;99.90;;;;;;5001335;28;20114;-69
2021/08/31 08:18:36;;;;;;;9.73;2.20;;;20.00;99.90;;;;;;5000820;28;20037;-69
2021/08/31 08:21:02;;;;;;;7.63;2.38;;;20.10;99.90;;;;;;4997331;28;20037;-69
2021/08/31 08:23:28;;;;;;;13.95;2.58;;;20.10;99.90;;;;;;5001849;28;20061;-69
2021/08/31 08:25:55;;;;;;;7.80;2.10;;;20.10;99.90;;;;;;5001674;28;20042;-69
2021/08/31 08:28:22;;;;;;;12.55;2.00;;;20.10;99.90;;;;;;4999064;28;20505;-69
2021/08/31 08:30:49;;;;;;;10.15;2.42;;;20.10;99.90;;;;;;5001962;28;20049;-66
2021/08/31 08:33:16;;;;;;;9.75;1.92;;;20.30;99.90;;;;;;4997170;28;20034;-69
2021/08/31 08:35:42;;;;;;;6.70;1.20;;;20.40;99.90;;;;;;4999481;28;20490;-69
2021/08/31 08:38:07;;;;;;;7.78;1.45;;;20.50;99.90;;;;;;4998799;28;20037;-69
2021/08/31 08:40:35;;;;;;;7.85;1.88;;;20.60;99.90;;;;;;4988110;28;20378;-69
2021/08/31 08:43:03;;;;;;;11.18;1.63;;;20.70;99.90;;;;;;4999850;28;20057;-69
2021/08/31 08:45:28;;;;;;;4.53;1.58;;;20.80;99.90;;;;;;4998461;28;20125;-69
2021/08/31 08:47:54;;;;;;;15.75;2.30;;;20.70;99.90;;;;;;4999682;28;20446;-70
2021/08/31 08:50:20;;;;;;;6.22;1.55;;;20.60;99.90;;;;;;4997336;28;20538;-70
2021/08/31 08:52:46;;;;;;;18.77;2.10;;;20.50;99.90;;;;;;5001014;28;20136;-70
2021/08/31 08:55:13;;;;;;;8.20;2.40;;;20.60;99.90;;;;;;4980275;28;20042;-69
2021/08/31 08:57:39;;;;;;;10.80;2.10;;;20.60;99.90;;;;;;4999748;28;20046;-68
2021/08/31 09:00:07;;;;;;;8.07;2.40;;;20.60;99.90;;;;;;4998630;28;20033;-69
2021/08/31 09:02:35;;;;;;;11.45;2.55;;;20.60;99.90;;;;;;4999261;28;20550;-69
2021/08/31 09:05:01;;;;;;;9.25;1.67;;;20.50;99.90;;;;;;4998512;28;20513;-69
2021/08/31 09:07:28;;;;;;;9.55;2.25;;;20.60;99.90;;;;;;4999307;28;20060;-68
2021/08/31 09:10:20;;;;;;;8.93;2.60;;;20.60;99.90;;;;;;4997658;28;20027;-69
2021/08/31 09:12:52;;;;;;;9.07;2.03;;;20.80;99.90;;;;;;5000418;28;20073;-69
2021/08/31 09:15:18;;;;;;;5.93;1.45;;;21.20;99.90;;;;;;4996754;28;20061;-69
2021/08/31 09:18:12;;;;;;;7.28;2.05;;;21.10;99.90;;;;;;5003881;28;20030;-69
2021/08/31 09:20:47;;;;;;;9.98;2.13;;;21.20;99.90;;;;;;5001890;28;20030;-69
2021/08/31 09:23:20;;;;;;;11.02;2.08;;;21.10;99.90;;;;;;5002997;28;20052;-69
2021/08/31 09:25:47;;;;;;;4.90;1.60;;;21.10;99.90;;;;;;4998986;28;20042;-71
2021/08/31 09:28:23;;;;;;;5.13;2.10;;;21.00;99.90;;;;;;5000646;28;20030;-70
2021/08/31 09:30:56;;;;;;;6.93;2.00;;;20.90;99.90;;;;;;4997086;28;20058;-69
2021/08/31 09:33:24;;;;;;;5.70;1.40;;;20.90;99.90;;;;;;4997724;28;20491;-69
2021/08/31 09:36:12;;;;;;;13.05;2.45;;;20.80;99.90;;;;;;5000154;28;20029;-69
2021/08/31 09:38:41;;;;;;;9.73;1.90;;;20.80;99.90;;;;;;4999638;28;20474;-69
2021/08/31 09:41:06;;;;;;;5.53;1.63;;;20.70;99.90;;;;;;5003296;28;20045;-69
2021/08/31 09:43:32;;;;;;;6.00;1.63;;;20.60;99.90;;;;;;4980996;28;20403;-69
2021/08/31 09:45:58;;;;;;;6.80;1.75;;;20.50;99.90;;;;;;4998819;28;20161;-69
2021/08/31 09:48:23;;;;;;;10.68;1.92;;;20.40;99.90;;;;;;4980667;28;20399;-69
2021/08/31 09:50:51;;;;;;;9.52;1.70;;;20.10;99.90;;;;;;4999852;28;20038;-69
2021/08/31 09:53:23;;;;;;;12.90;1.85;;;20.10;99.90;;;;;;4997146;28;20114;-68
2021/08/31 09:55:51;;;;;;;4.70;1.70;;;20.00;99.90;;;;;;4996754;28;20077;-69
2021/08/31 09:58:24;;;;;;;10.30;1.55;;;20.00;99.90;;;;;;5000879;28;20092;-69
2021/08/31 10:00:52;;;;;;;12.98;2.35;;;20.00;99.90;;;;;;5000567;28;20419;-69
2021/08/31 10:03:18;;;;;;;12.27;1.85;;;20.10;99.90;;;;;;5003950;28;20041;-69
2021/08/31 10:05:46;;;;;;;11.25;2.72;;;20.20;99.90;;;;;;5000061;28;20038;-71
2021/08/31 10:08:12;;;;;;;5.57;1.73;;;20.50;99.90;;;;;;5004266;28;20022;-69
2021/08/31 10:10:40;;;;;;;10.13;2.05;;;20.50;99.90;;;;;;5003771;28;20029;-72
2021/08/31 10:13:14;;;;;;;7.97;1.38;;;20.40;99.90;;;;;;5001550;28;20040;-68
2021/08/31 10:15:47;;;;;;;13.40;2.38;;;20.30;99.90;;;;;;5002983;28;20101;-69
2021/08/31 10:18:14;;;;;;;8.60;2.30;;;20.40;99.90;;;;;;5000669;28;20047;-71
2021/08/31 10:20:47;;;;;;;5.05;1.45;;;20.40;99.90;;;;;;4985514;28;20437;-69
2021/08/31 10:23:15;;;;;;;9.40;2.10;;;20.50;99.90;;;;;;4992771;28;20045;-68
2021/08/31 10:25:41;;;;;;;5.57;1.58;;;20.60;99.90;;;;;;5004762;28;20112;-69
2021/08/31 10:28:24;;;;;;;7.57;1.60;;;20.70;99.90;;;;;;5001681;28;20582;-68
2021/08/31 10:30:51;;;;;;;5.50;1.40;;;20.70;99.90;;;;;;4995415;28;20041;-70
2021/08/31 10:33:38;;;;;;;9.25;1.10;;;20.50;99.90;;;;;;5013202;28;20108;-69
2021/08/31 10:36:06;;;;;;;8.93;1.70;;;20.60;99.90;;;;;;5000092;28;20038;-69
2021/08/31 10:38:53;;;;;;;6.75;1.73;;;20.70;99.90;;;;;;5003546;28;20180;-68
2021/08/31 10:41:42;;;;;;;10.27;2.13;;;20.80;99.90;;;;;;5005597;28;20030;-69
2021/08/31 10:44:13;;;;;;;6.72;1.60;;;20.80;99.90;;;;;;4998837;28;20057;-69
2021/08/31 10:47:04;;;;;;;5.65;1.60;;;21.00;99.90;;;;;;4999640;28;20734;-69
2021/08/31 10:49:30;;;;;;;4.97;1.80;;;21.00;99.90;;;;;;4980705;28;20044;-68
2021/08/31 10:52:01;;;;;;;7.82;2.13;;;21.10;99.90;;;;;;4998298;28;20120;-68
2021/08/31 10:54:48;;;;;;;5.90;2.13;;;21.10;99.90;;;;;;4996811;28;20122;-68
2021/08/31 10:57:35;;;;;;;9.00;1.55;;;21.10;99.90;;;;;;4996644;28;20042;-68
2021/08/31 11:00:21;;;;;;;4.88;1.80;;;21.20;99.90;;;;;;4999243;28;20034;-69
2021/08/31 11:02:49;;;;;;;6.68;1.52;;;21.40;99.90;;;;;;4984102;28;20030;-69
2021/08/31 11:05:20;;;;;;;7.78;1.67;;;21.50;99.90;;;;;;5002148;28;20034;-68
2021/08/31 11:07:47;;;;;;;7.97;2.15;;;21.50;99.90;;;;;;4994808;28;20034;-68
2021/08/31 11:10:30;;;;;;;10.05;1.98;;;21.70;99.90;;;;;;4997927;28;20034;-70
2021/08/31 11:13:06;;;;;;;9.93;2.30;;;21.50;99.90;;;;;;4996328;28;20644;-70
2021/08/31 11:15:32;;;;;;;7.13;2.10;;;21.60;99.90;;;;;;4996885;28;20053;-71
2021/08/31 11:17:58;;;;;;;10.23;1.50;;;21.50;99.90;;;;;;4980605;28;20062;-70
2021/08/31 11:20:31;;;;;;;10.57;1.92;;;21.40;99.90;;;;;;4999149;28;20033;-71
2021/08/31 11:23:03;;;;;;;7.93;1.67;;;21.40;99.90;;;;;;4975809;28;20510;-69
2021/08/31 11:25:39;;;;;;;7.82;1.92;;;21.50;99.90;;;;;;5002957;28;20037;-70
2021/08/31 11:28:09;;;;;;;14.85;2.80;;;21.40;99.90;;;;;;4998457;28;20065;-70
2021/08/31 11:30:54;;;;;;;9.35;1.98;;;21.60;99.90;;;;;;4994173;28;20034;-69
2021/08/31 11:33:24;;;;;;;6.43;1.40;;;21.50;99.90;;;;;;5000569;28;20101;-71
2021/08/31 11:36:06;;;;;;;4.82;1.70;;;21.40;99.90;;;;;;4995562;28;20118;-65
2021/08/31 11:38:31;;;;;;;51.20;3.03;;;21.40;99.90;;;;;;4979503;28;20042;-69
2021/08/31 11:41:14;;;;;;;5.63;1.27;;;21.40;99.90;;;;;;5000857;28;20044;-69
2021/08/31 11:43:40;;;;;;;7.53;2.10;;;21.50;99.90;;;;;;4995657;28;20034;-70
2021/08/31 11:46:06;;;;;;;7.68;2.05;;;21.50;99.90;;;;;;4999199;28;20057;-70
2021/08/31 11:48:34;;;;;;;4.97;1.60;;;21.50;99.90;;;;;;4996778;28;20035;-69
2021/08/31 11:51:00;;;;;;;7.45;1.77;;;21.70;99.90;;;;;;4998688;28;20683;-70
2021/08/31 11:53:25;;;;;;;7.18;2.42;;;21.40;99.90;;;;;;4979835;28;20026;-69
2021/08/31 11:56:03;;;;;;;7.32;1.45;;;21.30;99.90;;;;;;4995095;28;20034;-70
2021/08/31 11:58:30;;;;;;;6.60;1.42;;;21.10;99.90;;;;;;4978039;28;20383;-70
2021/08/31 12:00:56;;;;;;;5.95;1.48;;;21.10;99.90;;;;;;4980117;28;20041;-70
2021/08/31 12:03:27;;;;;;;6.13;1.58;;;21.10;99.90;;;;;;4995872;28;20038;-70
2021/08/31 12:06:05;;;;;;;9.75;1.63;;;21.00;99.90;;;;;;4978914;28;20034;-70
2021/08/31 12:08:36;;;;;;;5.32;1.25;;;20.90;99.90;;;;;;4996343;28;20038;-69
2021/08/31 12:11:03;;;;;;;10.95;1.70;;;20.90;99.90;;;;;;4998757;28;20034;-69
2021/08/31 12:13:29;;;;;;;6.20;1.58;;;21.00;99.90;;;;;;4996651;28;20068;-70
2021/08/31 12:15:57;;;;;;;5.55;1.52;;;20.90;99.90;;;;;;4997111;28;20875;-69
2021/08/31 12:18:25;;;;;;;6.28;1.27;;;20.80;99.90;;;;;;4999048;28;20035;-71
2021/08/31 12:20:52;;;;;;;7.10;1.48;;;20.80;99.90;;;;;;4996178;28;20038;-70
2021/08/31 12:23:29;;;;;;;10.05;1.45;;;20.90;99.90;;;;;;4992804;28;20030;-69
2021/08/31 12:25:55;;;;;;;9.70;2.67;;;20.90;99.90;;;;;;4995124;28;20116;-70
2021/08/31 12:28:21;;;;;;;6.30;1.48;;;21.10;99.90;;;;;;4981507;28;20042;-70
2021/08/31 12:30:47;;;;;;;7.20;1.60;;;21.20;99.90;;;;;;4999649;28;20038;-71
2021/08/31 12:33:33;;;;;;;5.10;1.65;;;21.30;99.90;;;;;;4994490;28;20596;-69
2021/08/31 12:36:11;;;;;;;8.15;2.00;;;21.20;99.90;;;;;;4998185;28;20041;-70
2021/08/31 12:38:47;;;;;;;11.32;2.53;;;21.20;99.90;;;;;;4996690;28;20387;-70
2021/08/31 12:41:34;;;;;;;6.72;1.85;;;21.20;99.90;;;;;;4983259;28;20033;-69
2021/08/31 12:43:59;;;;;;;9.77;1.80;;;21.40;99.90;;;;;;4998533;28;20022;-70